Time;durP1;ratioP1;P1;durP2;ratioP2;P2;SDS_P1;SDS_P2;PMS_P1;PMS_P2;Temp;Humidity;BMP_temperature;BMP_pressure;BME280_temperature;BME280_humidity;BME280_pressure;Samples;Min_cycle;Max_cycle;Signal;HPM_P1;HPM_P2
2021/06/16 00:01:56;;;;;;;1999.90;999.90;;;13.90;99.90;;;;;;6125280;23;20208;-48
2021/06/16 00:04:23;;;;;;;1999.90;999.90;;;13.90;99.90;;;;;;6125268;23;20190;-51
2021/06/16 00:06:51;;;;;;;1999.90;999.90;;;13.90;99.90;;;;;;6125569;23;20202;-48
2021/06/16 00:09:18;;;;;;;1999.90;999.90;;;13.80;99.90;;;;;;6125222;23;20649;-51
2021/06/16 00:11:45;;;;;;;1999.90;999.90;;;13.90;99.90;;;;;;6125335;23;20195;-47
2021/06/16 00:14:13;;;;;;;1999.90;999.90;;;13.90;99.90;;;;;;6125424;23;20246;-46
2021/06/16 00:16:42;;;;;;;1999.90;999.90;;;13.90;99.90;;;;;;6124930;23;20144;-48
2021/06/16 00:19:09;;;;;;;1999.90;999.90;;;13.90;99.90;;;;;;6125032;23;20249;-51
2021/06/16 00:21:35;;;;;;;1999.90;999.90;;;13.90;99.90;;;;;;6125575;23;20217;-50
2021/06/16 00:24:03;;;;;;;1999.90;999.90;;;13.90;99.90;;;;;;6125522;23;20174;-46
2021/06/16 00:26:29;;;;;;;1999.90;999.90;;;13.90;99.90;;;;;;6124995;23;20143;-47
2021/06/16 00:28:56;;;;;;;1999.90;999.90;;;13.80;99.90;;;;;;6124819;23;20151;-48
2021/06/16 00:31:23;;;;;;;1999.90;999.90;;;13.80;99.90;;;;;;6124839;23;20591;-51
2021/06/16 00:33:50;;;;;;;1999.90;999.90;;;13.90;99.90;;;;;;6125288;23;20159;-47
2021/06/16 00:36:18;;;;;;;1999.90;999.90;;;13.90;99.90;;;;;;6124515;23;20528;-48
2021/06/16 00:38:45;;;;;;;1999.90;999.90;;;13.90;99.90;;;;;;6124992;23;20234;-51
2021/06/16 00:41:12;;;;;;;1999.90;999.90;;;13.80;99.90;;;;;;6125196;23;20591;-52
2021/06/16 00:43:40;;;;;;;1999.90;999.90;;;13.80;99.90;;;;;;6124873;23;20639;-49
2021/06/16 00:46:07;;;;;;;1999.90;999.90;;;13.80;99.90;;;;;;6124937;23;20476;-48
2021/06/16 00:48:33;;;;;;;1999.90;999.90;;;13.80;99.90;;;;;;6125391;23;20151;-48
2021/06/16 00:51:00;;;;;;;1999.90;999.90;;;13.90;99.90;;;;;;6124647;23;20162;-46
2021/06/16 00:53:29;;;;;;;1999.90;999.90;;;13.90;99.90;;;;;;6124434;23;20265;-51
2021/06/16 00:55:56;;;;;;;1999.90;999.90;;;13.90;99.90;;;;;;6125053;23;20147;-49
2021/06/16 00:58:23;;;;;;;1999.90;999.90;;;13.90;99.90;;;;;;6124789;23;20143;-52
2021/06/16 01:01:00;;;;;;;1999.90;999.90;;;13.80;99.90;;;;;;6124837;23;20613;-46
2021/06/16 01:03:29;;;;;;;1999.90;999.90;;;13.80;99.90;;;;;;6124630;23;20178;-46
2021/06/16 01:06:16;;;;;;;1999.90;999.90;;;13.60;99.90;;;;;;6124729;23;20151;-52
2021/06/16 01:09:08;;;;;;;1999.90;999.90;;;13.60;99.90;;;;;;6124698;23;20159;-49
2021/06/16 01:11:44;;;;;;;1999.90;999.90;;;13.60;99.90;;;;;;6109493;23;20181;-50
2021/06/16 01:14:19;;;;;;;1999.90;999.90;;;13.60;99.90;;;;;;6124324;23;20139;-46
2021/06/16 01:16:59;;;;;;;1999.90;999.90;;;13.60;99.90;;;;;;6125074;23;20167;-52
2021/06/16 01:19:59;;;;;;;1999.90;999.90;;;13.60;99.90;;;;;;6124458;23;20131;-47
2021/06/16 01:23:03;;;;;;;1999.90;999.90;;;13.60;99.90;;;;;;6124712;23;20135;-47
2021/06/16 01:25:45;;;;;;;1999.90;999.90;;;13.60;99.90;;;;;;6124444;23;20148;-48
2021/06/16 01:28:13;;;;;;;1999.90;999.90;;;13.70;99.90;;;;;;6124319;23;20139;-50
2021/06/16 01:30:42;;;;;;;1999.90;999.90;;;13.70;99.90;;;;;;6124665;23;20234;-48
2021/06/16 01:33:11;;;;;;;1999.90;999.90;;;13.60;99.90;;;;;;6124330;23;20147;-51
2021/06/16 01:35:46;;;;;;;1999.90;999.90;;;13.60;99.90;;;;;;6123932;23;20238;-48
2021/06/16 01:38:17;;;;;;;1999.90;999.90;;;13.60;99.90;;;;;;6124400;23;20147;-50
2021/06/16 01:40:46;;;;;;;1999.90;999.90;;;13.70;99.90;;;;;;6124220;23;20172;-49
2021/06/16 01:43:13;;;;;;;1999.90;999.90;;;13.80;99.90;;;;;;6123990;23;20155;-48
2021/06/16 01:45:41;;;;;;;1999.90;999.90;;;13.80;99.90;;;;;;6124334;23;20530;-50
2021/06/16 01:48:14;;;;;;;1999.90;999.90;;;13.80;99.90;;;;;;6124234;23;20481;-46
2021/06/16 01:50:43;;;;;;;1999.90;999.90;;;13.90;99.90;;;;;;6124293;23;20147;-46
2021/06/16 01:53:12;;;;;;;1999.90;999.90;;;13.90;99.90;;;;;;6124640;23;20195;-48
2021/06/16 01:55:39;;;;;;;1999.90;999.90;;;13.90;99.90;;;;;;6124065;23;20167;-46
2021/06/16 01:58:07;;;;;;;1999.90;999.90;;;14.00;99.90;;;;;;6124190;23;20230;-48
2021/06/16 02:00:38;;;;;;;1999.90;999.90;;;13.90;99.90;;;;;;6124297;23;20527;-46
2021/06/16 02:03:05;;;;;;;1999.90;999.90;;;13.90;99.90;;;;;;6123929;23;20174;-48
2021/06/16 02:05:33;;;;;;;1999.90;999.90;;;13.80;99.90;;;;;;6124451;23;20478;-50
2021/06/16 02:08:03;;;;;;;1999.90;999.90;;;13.90;99.90;;;;;;6124381;23;20151;-47
2021/06/16 02:10:40;;;;;;;1999.90;999.90;;;13.90;99.90;;;;;;6124197;23;20587;-46
2021/06/16 02:13:09;;;;;;;1999.90;999.90;;;13.90;99.90;;;;;;6124033;23;20148;-48
2021/06/16 02:15:54;;;;;;;1999.90;999.90;;;13.90;99.90;;;;;;6124290;23;20456;-48
2021/06/16 02:18:26;;;;;;;1999.90;999.90;;;13.90;99.90;;;;;;6123736;23;20497;-47
2021/06/16 02:20:53;;;;;;;1999.90;999.90;;;13.80;99.90;;;;;;6124468;23;20558;-47
2021/06/16 02:23:22;;;;;;;1999.90;999.90;;;13.80;99.90;;;;;;6123826;23;20179;-47
2021/06/16 02:25:50;;;;;;;1999.90;999.90;;;13.80;99.90;;;;;;6123899;23;20670;-51
2021/06/16 02:28:17;;;;;;;1999.90;999.90;;;13.90;99.90;;;;;;6124226;23;20187;-51
2021/06/16 02:30:44;;;;;;;1999.90;999.90;;;14.00;99.90;;;;;;6123976;23;20230;-46
2021/06/16 02:33:10;;;;;;;1999.90;999.90;;;14.00;99.90;;;;;;6123951;23;20151;-50
2021/06/16 02:35:37;;;;;;;1999.90;999.90;;;14.10;99.90;;;;;;6124447;23;20478;-47
2021/06/16 02:38:10;;;;;;;1999.90;999.90;;;14.10;99.90;;;;;;6123736;23;20154;-48
2021/06/16 02:40:40;;;;;;;1999.90;999.90;;;14.20;99.90;;;;;;6124062;23;20135;-50
2021/06/16 02:43:08;;;;;;;1999.90;999.90;;;14.10;99.90;;;;;;6123710;23;20592;-46
2021/06/16 02:45:39;;;;;;;1999.90;999.90;;;14.10;99.90;;;;;;6123823;23;20150;-46
2021/06/16 02:48:07;;;;;;;1999.90;999.90;;;14.10;99.90;;;;;;6124270;23;20135;-50
2021/06/16 02:50:36;;;;;;;1999.90;999.90;;;14.00;99.90;;;;;;6123741;23;20266;-48
2021/06/16 02:53:08;;;;;;;1999.90;999.90;;;14.10;99.90;;;;;;6123647;23;20222;-48
2021/06/16 02:55:37;;;;;;;1999.90;999.90;;;14.00;99.90;;;;;;6123706;23;20178;-49
2021/06/16 02:58:06;;;;;;;1999.90;999.90;;;14.00;99.90;;;;;;6123976;23;20162;-47
2021/06/16 03:00:33;;;;;;;1999.90;999.90;;;14.00;99.90;;;;;;6123782;23;20579;-47
2021/06/16 03:03:01;;;;;;;1999.90;999.90;;;14.00;99.90;;;;;;6123804;23;20158;-48
2021/06/16 03:05:29;;;;;;;1999.90;999.90;;;14.00;99.90;;;;;;6123673;23;20155;-49
2021/06/16 03:07:58;;;;;;;1999.90;999.90;;;14.00;99.90;;;;;;6123592;23;20151;-50
2021/06/16 03:10:29;;;;;;;1999.90;999.90;;;14.00;99.90;;;;;;6124219;23;20147;-52
2021/06/16 03:12:57;;;;;;;1999.90;999.90;;;14.00;99.90;;;;;;6123963;23;20144;-46
2021/06/16 03:15:25;;;;;;;1999.90;999.90;;;14.10;99.90;;;;;;6123757;23;20488;-50
2021/06/16 03:17:55;;;;;;;1999.90;999.90;;;14.00;99.90;;;;;;6123845;23;20580;-50
2021/06/16 03:20:24;;;;;;;1999.90;999.90;;;14.10;99.90;;;;;;6123401;23;20156;-46
2021/06/16 03:22:54;;;;;;;1999.90;999.90;;;14.10;99.90;;;;;;6123452;23;20153;-47
2021/06/16 03:25:21;;;;;;;1999.90;999.90;;;14.10;99.90;;;;;;6123860;23;20215;-46
2021/06/16 03:27:51;;;;;;;1999.90;999.90;;;14.10;99.90;;;;;;6123418;23;20155;-49
2021/06/16 03:30:20;;;;;;;1999.90;999.90;;;14.10;99.90;;;;;;6123684;23;20414;-51
2021/06/16 03:32:50;;;;;;;1999.90;999.90;;;14.20;99.90;;;;;;6123672;23;20153;-48
2021/06/16 03:35:17;;;;;;;1999.90;999.90;;;14.20;99.90;;;;;;6123551;23;20254;-48
2021/06/16 03:37:44;;;;;;;1999.90;999.90;;;14.20;99.90;;;;;;6123711;23;20151;-50
2021/06/16 03:40:11;;;;;;;1999.90;999.90;;;14.20;99.90;;;;;;6123982;23;20159;-47
2021/06/16 03:42:39;;;;;;;1999.90;999.90;;;14.20;99.90;;;;;;6123967;23;20155;-50
2021/06/16 03:45:10;;;;;;;1999.90;999.90;;;14.20;99.90;;;;;;6123537;23;20264;-47
2021/06/16 03:47:44;;;;;;;1999.90;999.90;;;14.20;99.90;;;;;;6123793;23;20147;-47
2021/06/16 03:50:17;;;;;;;1999.90;999.90;;;14.30;99.90;;;;;;6123351;23;20162;-48
2021/06/16 03:52:44;;;;;;;1999.90;999.90;;;14.30;99.90;;;;;;6123578;23;20191;-48
2021/06/16 03:55:12;;;;;;;1999.90;999.90;;;14.30;99.90;;;;;;6123401;23;20466;-49
2021/06/16 03:57:40;;;;;;;1999.90;999.90;;;14.30;99.90;;;;;;6123541;23;20625;-47
2021/06/16 04:00:08;;;;;;;1999.90;999.90;;;14.20;99.90;;;;;;6123906;23;20151;-49
2021/06/16 04:02:36;;;;;;;1999.90;999.90;;;14.30;99.90;;;;;;6123757;23;20214;-46
2021/06/16 04:05:09;;;;;;;1999.90;999.90;;;14.30;99.90;;;;;;6124841;23;20565;-47
2021/06/16 04:07:37;;;;;;;1999.90;999.90;;;14.30;99.90;;;;;;6125470;23;20589;-47
2021/06/16 04:10:05;;;;;;;1999.90;999.90;;;14.30;99.90;;;;;;6125032;23;20620;-46
2021/06/16 04:12:32;;;;;;;1999.90;999.90;;;14.30;99.90;;;;;;6125225;23;20205;-47
2021/06/16 04:14:59;;;;;;;1999.90;999.90;;;14.30;99.90;;;;;;6125469;23;20633;-47
2021/06/16 04:17:26;;;;;;;1999.90;999.90;;;14.40;99.90;;;;;;6125181;23;20586;-48
2021/06/16 04:19:53;;;;;;;1999.90;999.90;;;14.30;99.90;;;;;;6125109;23;20154;-51
2021/06/16 04:22:21;;;;;;;1999.90;999.90;;;14.30;99.90;;;;;;6125327;23;20162;-50
2021/06/16 04:24:48;;;;;;;1999.90;999.90;;;14.30;99.90;;;;;;6124917;23;20185;-47
2021/06/16 04:27:15;;;;;;;1999.90;999.90;;;14.30;99.90;;;;;;6124928;23;20150;-47
2021/06/16 04:29:42;;;;;;;1999.90;999.90;;;14.30;99.90;;;;;;6125011;23;20470;-48
2021/06/16 04:32:10;;;;;;;1999.90;999.90;;;14.30;99.90;;;;;;6124857;23;20154;-48
2021/06/16 04:34:38;;;;;;;1999.90;999.90;;;14.30;99.90;;;;;;6125608;23;20148;-49
2021/06/16 04:37:05;;;;;;;1999.90;999.90;;;14.30;99.90;;;;;;6124765;23;20146;-49
2021/06/16 04:39:33;;;;;;;1999.90;999.90;;;14.30;99.90;;;;;;6125074;23;20151;-48
2021/06/16 04:42:01;;;;;;;1999.90;999.90;;;14.30;99.90;;;;;;6124864;23;20171;-48
2021/06/16 04:44:28;;;;;;;1999.90;999.90;;;14.20;99.90;;;;;;6124833;23;20558;-46
2021/06/16 04:46:55;;;;;;;1999.90;999.90;;;14.20;99.90;;;;;;6124574;23;20219;-48
2021/06/16 04:49:22;;;;;;;1999.90;999.90;;;14.20;99.90;;;;;;6124953;23;20159;-50
2021/06/16 04:51:50;;;;;;;1999.90;999.90;;;14.20;99.90;;;;;;6124954;23;20175;-49
2021/06/16 04:54:17;;;;;;;1999.90;999.90;;;14.10;99.90;;;;;;6124487;23;20191;-47
2021/06/16 04:56:44;;;;;;;1999.90;999.90;;;14.20;99.90;;;;;;6125058;23;20150;-49
2021/06/16 04:59:11;;;;;;;1999.90;999.90;;;14.10;99.90;;;;;;6124753;23;20178;-47
2021/06/16 05:01:39;;;;;;;1999.90;999.90;;;14.10;99.90;;;;;;6124719;23;20484;-47
2021/06/16 05:04:06;;;;;;;1999.90;999.90;;;14.10;99.90;;;;;;6124768;23;20502;-47
2021/06/16 05:06:33;;;;;;;1999.90;999.90;;;14.10;99.90;;;;;;6124953;23;20147;-48
2021/06/16 05:09:00;;;;;;;1999.90;999.90;;;14.10;99.90;;;;;;6124649;23;20173;-47
2021/06/16 05:11:27;;;;;;;1999.90;999.90;;;14.10;99.90;;;;;;6124920;23;20154;-50
2021/06/16 05:13:54;;;;;;;1999.90;999.90;;;14.10;99.90;;;;;;6124343;23;20174;-47
2021/06/16 05:16:21;;;;;;;1999.90;999.90;;;14.10;99.90;;;;;;6124448;23;20155;-47
2021/06/16 05:18:48;;;;;;;1999.90;999.90;;;14.10;99.90;;;;;;6124954;23;20154;-47
2021/06/16 05:21:15;;;;;;;1999.90;999.90;;;14.10;99.90;;;;;;6124315;23;20162;-49
2021/06/16 05:23:42;;;;;;;1999.90;999.90;;;14.10;99.90;;;;;;6124469;23;20606;-47
2021/06/16 05:26:09;;;;;;;1999.90;999.90;;;14.00;99.90;;;;;;6124915;23;20206;-47
2021/06/16 05:28:36;;;;;;;1999.90;999.90;;;14.00;99.90;;;;;;6124744;23;20148;-47
2021/06/16 05:31:03;;;;;;;1999.90;999.90;;;14.00;99.90;;;;;;6124149;23;20189;-47
2021/06/16 05:33:29;;;;;;;1999.90;999.90;;;14.10;99.90;;;;;;6124651;23;20151;-48
2021/06/16 05:35:56;;;;;;;1999.90;999.90;;;14.00;99.90;;;;;;6124242;23;20147;-47
2021/06/16 05:38:24;;;;;;;1999.90;999.90;;;14.00;99.90;;;;;;6124578;23;20152;-48
2021/06/16 05:40:51;;;;;;;1999.90;999.90;;;14.00;99.90;;;;;;6124492;23;20166;-48
2021/06/16 05:43:18;;;;;;;1999.90;999.90;;;14.00;99.90;;;;;;6124247;23;20158;-47
2021/06/16 05:45:44;;;;;;;1999.90;999.90;;;14.00;99.90;;;;;;6124384;23;20591;-48
2021/06/16 05:48:11;;;;;;;1999.90;999.90;;;14.00;99.90;;;;;;6124403;23;20158;-47
2021/06/16 05:50:38;;;;;;;1999.90;999.90;;;14.00;99.90;;;;;;6124366;23;20147;-48
2021/06/16 05:53:05;;;;;;;1999.90;999.90;;;14.00;99.90;;;;;;6124067;23;20273;-47
2021/06/16 05:55:32;;;;;;;1999.90;999.90;;;14.00;99.90;;;;;;6124394;23;20147;-49
2021/06/16 05:57:58;;;;;;;1999.90;999.90;;;14.00;99.90;;;;;;6124152;23;20159;-48
2021/06/16 06:00:25;;;;;;;1999.90;999.90;;;14.00;99.90;;;;;;6124181;23;20218;-49
2021/06/16 06:02:52;;;;;;;1999.90;999.90;;;14.00;99.90;;;;;;6124676;23;20151;-48
2021/06/16 06:05:19;;;;;;;1999.90;999.90;;;14.00;99.90;;;;;;6123864;23;20615;-47
2021/06/16 06:07:46;;;;;;;1999.90;999.90;;;14.00;99.90;;;;;;6124496;23;20166;-50
2021/06/16 06:10:13;;;;;;;1999.90;999.90;;;13.90;99.90;;;;;;6124240;23;20733;-47
2021/06/16 06:12:40;;;;;;;1999.90;999.90;;;14.00;99.90;;;;;;6123853;23;20218;-47
2021/06/16 06:15:08;;;;;;;1999.90;999.90;;;14.00;99.90;;;;;;6124516;23;20658;-46
2021/06/16 06:17:35;;;;;;;1999.90;999.90;;;14.00;99.90;;;;;;6123739;23;20152;-46
2021/06/16 06:20:03;;;;;;;1999.90;999.90;;;14.00;99.90;;;;;;6124425;23;20178;-48
2021/06/16 06:22:30;;;;;;;1999.90;999.90;;;14.00;99.90;;;;;;6124415;23;20147;-47
2021/06/16 06:24:57;;;;;;;1999.90;999.90;;;14.00;99.90;;;;;;6123743;23;20280;-48
2021/06/16 06:27:26;;;;;;;1999.90;999.90;;;14.10;99.90;;;;;;6123738;23;20599;-49
2021/06/16 06:29:53;;;;;;;1999.90;999.90;;;14.10;99.90;;;;;;6124084;23;20163;-50
2021/06/16 06:32:20;;;;;;;1999.90;999.90;;;14.10;99.90;;;;;;6124030;23;20226;-47
2021/06/16 06:34:47;;;;;;;1999.90;999.90;;;14.10;99.90;;;;;;6123900;23;20151;-49
2021/06/16 06:37:14;;;;;;;1999.90;999.90;;;14.10;99.90;;;;;;6124149;23;20143;-50
2021/06/16 06:39:42;;;;;;;1999.90;999.90;;;14.20;99.90;;;;;;6123838;23;20158;-49
2021/06/16 06:42:09;;;;;;;1999.90;999.90;;;14.20;99.90;;;;;;6123951;23;20151;-47
2021/06/16 06:44:36;;;;;;;1999.90;999.90;;;14.20;99.90;;;;;;6123284;23;20194;-47
2021/06/16 06:47:03;;;;;;;1999.90;999.90;;;14.20;99.90;;;;;;6123715;23;20206;-48
2021/06/16 06:49:30;;;;;;;1999.90;999.90;;;14.20;99.90;;;;;;6123843;23;20582;-47
2021/06/16 06:51:57;;;;;;;1999.90;999.90;;;14.20;99.90;;;;;;6124312;23;20154;-52
2021/06/16 06:54:24;;;;;;;1999.90;999.90;;;14.20;99.90;;;;;;6123613;23;20159;-48
2021/06/16 06:56:52;;;;;;;1999.90;999.90;;;14.30;99.90;;;;;;6123679;23;20483;-50
2021/06/16 06:59:19;;;;;;;1999.90;999.90;;;14.30;99.90;;;;;;6123672;23;20580;-47
2021/06/16 07:01:46;;;;;;;1999.90;999.90;;;14.30;99.90;;;;;;6123686;23;20147;-47
2021/06/16 07:04:13;;;;;;;1999.90;999.90;;;14.30;99.90;;;;;;6123669;23;20194;-47
2021/06/16 07:06:40;;;;;;;1999.90;999.90;;;14.30;99.90;;;;;;6123911;23;20155;-49
2021/06/16 07:09:07;;;;;;;1999.90;999.90;;;14.30;99.90;;;;;;6123802;23;20147;-47
2021/06/16 07:11:34;;;;;;;1999.90;999.90;;;14.30;99.90;;;;;;6123691;23;20154;-48
2021/06/16 07:14:01;;;;;;;1999.90;999.90;;;14.40;99.90;;;;;;6123741;23;20166;-48
2021/06/16 07:16:28;;;;;;;1999.90;999.90;;;14.50;99.90;;;;;;6123477;23;20155;-48
2021/06/16 07:18:55;;;;;;;1999.90;999.90;;;14.50;99.90;;;;;;6123981;23;20177;-50
2021/06/16 07:21:22;;;;;;;1999.90;999.90;;;14.60;99.90;;;;;;6123647;23;20147;-47
2021/06/16 07:23:49;;;;;;;1999.90;999.90;;;14.60;99.90;;;;;;6123492;23;20178;-47
2021/06/16 07:26:17;;;;;;;1999.90;999.90;;;14.70;99.90;;;;;;6123944;23;20151;-50
2021/06/16 07:28:44;;;;;;;1999.90;999.90;;;14.70;99.90;;;;;;6123549;23;20575;-47
2021/06/16 07:31:11;;;;;;;1999.90;999.90;;;14.80;99.90;;;;;;6123408;23;20481;-47
2021/06/16 07:33:38;;;;;;;1999.90;999.90;;;14.80;99.90;;;;;;6124092;23;20154;-49
2021/06/16 07:36:06;;;;;;;1999.90;999.90;;;14.90;99.90;;;;;;6123381;23;20147;-48
2021/06/16 07:38:33;;;;;;;1999.90;999.90;;;14.90;99.90;;;;;;6125385;23;20152;-50
2021/06/16 07:41:00;;;;;;;1999.90;999.90;;;15.00;99.90;;;;;;6125598;23;20155;-47
2021/06/16 07:43:27;;;;;;;1999.90;999.90;;;15.00;99.90;;;;;;6125123;23;20181;-48
2021/06/16 07:45:54;;;;;;;1999.90;999.90;;;15.00;99.90;;;;;;6125422;23;20217;-50
2021/06/16 07:48:23;;;;;;;1999.90;999.90;;;15.00;99.90;;;;;;6125886;23;20163;-49
2021/06/16 07:50:50;;;;;;;1999.90;999.90;;;15.00;99.90;;;;;;6099316;23;20150;-48
2021/06/16 07:53:17;;;;;;;1999.90;999.90;;;15.10;99.90;;;;;;6125107;23;20210;-49
2021/06/16 07:55:44;;;;;;;1999.90;999.90;;;15.10;99.90;;;;;;6125544;23;20494;-47
2021/06/16 07:58:11;;;;;;;1999.90;999.90;;;15.20;99.90;;;;;;6125447;23;20289;-47
2021/06/16 08:00:38;;;;;;;1999.90;999.90;;;15.20;99.90;;;;;;6099684;23;20237;-49
2021/06/16 08:03:05;;;;;;;1999.90;999.90;;;15.20;99.90;;;;;;6124297;23;20159;-53
2021/06/16 08:05:33;;;;;;;1999.90;999.90;;;15.20;99.90;;;;;;6125168;23;20161;-53
2021/06/16 08:08:00;;;;;;;1999.90;999.90;;;15.20;99.90;;;;;;6125444;23;20156;-48
2021/06/16 08:10:28;;;;;;;1999.90;999.90;;;15.20;99.90;;;;;;6125198;23;20156;-52
2021/06/16 08:12:55;;;;;;;1999.90;999.90;;;15.20;99.90;;;;;;6125308;23;20477;-48
2021/06/16 08:15:22;;;;;;;1999.90;999.90;;;15.30;99.90;;;;;;6125025;23;20147;-47
2021/06/16 08:17:51;;;;;;;1999.90;999.90;;;15.30;99.90;;;;;;6125709;23;20579;-49
2021/06/16 08:20:19;;;;;;;1999.90;999.90;;;15.40;99.90;;;;;;6124412;23;20158;-46
2021/06/16 08:22:46;;;;;;;1999.90;999.90;;;15.50;99.90;;;;;;6124788;23;20161;-46
2021/06/16 08:25:13;;;;;;;1999.90;999.90;;;15.50;99.90;;;;;;6124550;23;20182;-46
2021/06/16 08:27:42;;;;;;;1999.90;999.90;;;15.50;99.90;;;;;;6124656;23;20147;-47
2021/06/16 08:30:11;;;;;;;1999.90;999.90;;;15.50;99.90;;;;;;6125023;23;20147;-51
2021/06/16 08:32:38;;;;;;;1999.90;999.90;;;15.50;99.90;;;;;;6124442;23;20664;-52
2021/06/16 08:35:06;;;;;;;1999.90;999.90;;;15.50;99.90;;;;;;6098299;23;20199;-54
2021/06/16 08:37:33;;;;;;;1999.90;999.90;;;15.50;99.90;;;;;;6124851;23;20144;-55
2021/06/16 08:40:00;;;;;;;1999.90;999.90;;;15.50;99.90;;;;;;6124451;23;20152;-48
2021/06/16 08:42:27;;;;;;;1999.90;999.90;;;15.50;99.90;;;;;;6124230;23;20185;-48
2021/06/16 08:44:56;;;;;;;1999.90;999.90;;;15.60;99.90;;;;;;6124631;23;20186;-48
2021/06/16 08:47:25;;;;;;;1999.90;999.90;;;15.50;99.90;;;;;;6124007;23;20227;-56
2021/06/16 08:49:53;;;;;;;1999.90;999.90;;;15.60;99.90;;;;;;6124316;23;20538;-48
2021/06/16 08:52:20;;;;;;;1999.90;999.90;;;15.70;99.90;;;;;;6124273;23;20201;-54
2021/06/16 08:54:47;;;;;;;1999.90;999.90;;;15.80;99.90;;;;;;6124414;23;20147;-54
2021/06/16 08:57:14;;;;;;;1999.90;999.90;;;15.90;99.90;;;;;;6124178;23;20183;-47
2021/06/16 08:59:41;;;;;;;1999.90;999.90;;;16.00;99.90;;;;;;6124695;23;20219;-51
2021/06/16 09:02:07;;;;;;;1999.90;999.90;;;16.10;99.90;;;;;;6124337;23;20147;-49
2021/06/16 09:04:51;;;;;;;1999.90;999.90;;;16.20;99.90;;;;;;6124220;23;20614;-49
2021/06/16 09:07:30;;;;;;;1999.90;999.90;;;16.30;99.90;;;;;;6124079;23;20143;-46
2021/06/16 09:10:18;;;;;;;1999.90;999.90;;;16.40;99.90;;;;;;6124474;23;20139;-49
2021/06/16 09:12:56;;;;;;;1999.90;999.90;;;16.70;99.90;;;;;;6124407;23;20151;-48
2021/06/16 09:15:26;;;;;;;1999.90;999.90;;;16.80;99.90;;;;;;6123833;23;20158;-47
2021/06/16 09:18:06;;;;;;;1999.90;999.90;;;16.80;99.90;;;;;;6123747;23;20144;-47
2021/06/16 09:20:43;;;;;;;1999.90;999.90;;;16.80;99.90;;;;;;6124464;23;20470;-51
2021/06/16 09:23:23;;;;;;;1999.90;999.90;;;16.80;99.90;;;;;;6124029;23;20601;-51
2021/06/16 09:26:12;;;;;;;1999.90;999.90;;;16.80;99.90;;;;;;6123757;23;20210;-46
2021/06/16 09:28:51;;;;;;;1999.90;999.90;;;16.80;99.90;;;;;;6124006;23;20583;-50
2021/06/16 09:31:22;;;;;;;1999.90;999.90;;;16.90;99.90;;;;;;6098651;23;20159;-51
2021/06/16 09:33:50;;;;;;;1999.90;999.90;;;16.90;99.90;;;;;;6124002;23;20139;-48
2021/06/16 09:36:22;;;;;;;1999.90;999.90;;;17.00;99.90;;;;;;6123591;23;20143;-46
2021/06/16 09:38:50;;;;;;;1999.90;999.90;;;17.10;99.90;;;;;;6123558;23;20174;-48
2021/06/16 09:41:26;;;;;;;1999.90;999.90;;;17.20;99.90;;;;;;6123821;23;20165;-49
2021/06/16 09:43:56;;;;;;;1999.90;999.90;;;17.40;99.90;;;;;;6123506;23;20245;-45
2021/06/16 09:46:23;;;;;;;1999.90;999.90;;;17.50;99.90;;;;;;6097455;23;20163;-46
2021/06/16 09:48:50;;;;;;;1999.90;999.90;;;17.40;99.90;;;;;;6124036;23;20144;-49
2021/06/16 09:51:17;;;;;;;1999.90;999.90;;;17.40;99.90;;;;;;6123330;23;20194;-54
2021/06/16 09:54:18;;;;;;;1999.90;999.90;;;17.20;99.90;;;;;;6123289;23;20278;-47
2021/06/16 09:57:03;;;;;;;1999.90;999.90;;;17.30;99.90;;;;;;6115906;23;20155;-50
2021/06/16 09:59:41;;;;;;;1999.90;999.90;;;17.50;99.90;;;;;;6123872;23;20214;-50
2021/06/16 10:02:23;;;;;;;1999.90;999.90;;;17.60;99.90;;;;;;6122897;23;20257;-48
2021/06/16 10:05:01;;;;;;;1999.90;999.90;;;17.60;99.90;;;;;;6123440;23;20521;-50
2021/06/16 10:07:30;;;;;;;1999.90;999.90;;;17.60;99.90;;;;;;6122837;23;20143;-47
2021/06/16 10:10:07;;;;;;;1999.90;999.90;;;17.50;99.90;;;;;;6123527;23;20225;-52
2021/06/16 10:12:36;;;;;;;1999.90;999.90;;;17.40;99.90;;;;;;6122932;23;20206;-47
2021/06/16 10:15:10;;;;;;;1999.90;999.90;;;17.20;99.90;;;;;;6123259;23;20150;-47
2021/06/16 10:17:37;;;;;;;1999.90;999.90;;;17.10;99.90;;;;;;6124094;23;20150;-48
2021/06/16 10:20:07;;;;;;;1999.90;999.90;;;17.00;99.90;;;;;;6123419;23;20144;-48
2021/06/16 10:22:34;;;;;;;1999.90;999.90;;;16.80;99.90;;;;;;6123315;23;20537;-51
2021/06/16 10:25:01;;;;;;;1999.90;999.90;;;16.60;99.90;;;;;;6123659;23;20191;-49
2021/06/16 10:27:37;;;;;;;1999.90;999.90;;;16.40;99.90;;;;;;6123258;23;20571;-47
2021/06/16 10:30:15;;;;;;;1999.90;999.90;;;16.30;99.90;;;;;;6123726;23;20143;-53
2021/06/16 10:32:47;;;;;;;1999.90;999.90;;;16.10;99.90;;;;;;6123590;23;20206;-51
2021/06/16 10:35:36;;;;;;;1999.90;999.90;;;16.00;99.90;;;;;;6123356;23;20222;-47
2021/06/16 10:38:13;;;;;;;1999.90;999.90;;;15.90;99.90;;;;;;6123664;23;20174;-46
2021/06/16 10:40:54;;;;;;;1999.90;999.90;;;16.00;99.90;;;;;;6123543;23;20186;-47
2021/06/16 10:43:23;;;;;;;1999.90;999.90;;;16.10;99.90;;;;;;6123231;23;20514;-49
2021/06/16 10:45:59;;;;;;;1999.90;999.90;;;16.10;99.90;;;;;;6123484;23;20170;-48
2021/06/16 10:48:56;;;;;;;1999.90;999.90;;;16.20;99.90;;;;;;6122995;23;20170;-46
2021/06/16 10:51:32;;;;;;;1999.90;999.90;;;16.40;99.90;;;;;;6122194;23;20226;-46
2021/06/16 10:54:21;;;;;;;1999.90;999.90;;;16.40;99.90;;;;;;6097266;23;20202;-49
2021/06/16 10:56:59;;;;;;;1999.90;999.90;;;16.50;99.90;;;;;;6123025;23;20148;-50
2021/06/16 10:59:45;;;;;;;1999.90;999.90;;;16.60;99.90;;;;;;6123535;23;20505;-50
2021/06/16 11:02:14;;;;;;;1999.90;999.90;;;16.70;99.90;;;;;;6123400;23;20166;-47
2021/06/16 11:04:44;;;;;;;1999.90;999.90;;;16.70;99.90;;;;;;6123351;23;20218;-48
2021/06/16 11:07:32;;;;;;;1999.90;999.90;;;16.80;99.90;;;;;;6123486;23;20163;-47
2021/06/16 11:10:03;;;;;;;1999.90;999.90;;;16.70;99.90;;;;;;6123314;23;20207;-46
2021/06/16 11:12:45;;;;;;;1999.90;999.90;;;16.80;99.90;;;;;;6124084;23;20587;-53
2021/06/16 11:15:37;;;;;;;1999.90;999.90;;;16.90;99.90;;;;;;6125440;23;20158;-49
2021/06/16 11:18:06;;;;;;;1999.90;999.90;;;17.10;99.90;;;;;;6125155;23;20139;-48
2021/06/16 11:20:42;;;;;;;1999.90;999.90;;;17.20;99.90;;;;;;6125543;23;20147;-50
2021/06/16 11:23:21;;;;;;;1999.90;999.90;;;17.20;99.90;;;;;;6124919;23;20214;-47
2021/06/16 11:25:49;;;;;;;1999.90;999.90;;;17.40;99.90;;;;;;6124687;23;20209;-48
2021/06/16 11:28:38;;;;;;;1999.90;999.90;;;17.50;99.90;;;;;;6125801;23;20152;-48
2021/06/16 11:31:09;;;;;;;1999.90;999.90;;;17.70;99.90;;;;;;6124980;23;20230;-48
2021/06/16 11:33:40;;;;;;;1999.90;999.90;;;17.80;99.90;;;;;;6124910;23;20541;-47
2021/06/16 11:36:17;;;;;;;1999.90;999.90;;;17.80;99.90;;;;;;6124781;23;20150;-48
2021/06/16 11:39:06;;;;;;;1999.90;999.90;;;17.70;99.90;;;;;;6124873;23;20147;-45
2021/06/16 11:41:34;;;;;;;1999.90;999.90;;;17.70;99.90;;;;;;6125043;23;20447;-50
2021/06/16 11:44:07;;;;;;;1999.90;999.90;;;17.60;99.90;;;;;;6124912;23;20171;-54
2021/06/16 11:46:43;;;;;;;1999.90;999.90;;;17.50;99.90;;;;;;6124676;23;20139;-46
2021/06/16 11:49:24;;;;;;;1999.90;999.90;;;17.40;99.90;;;;;;6124903;23;20498;-51
2021/06/16 11:51:59;;;;;;;1999.90;999.90;;;17.40;99.90;;;;;;6124591;23;20235;-52
2021/06/16 11:54:30;;;;;;;1999.90;999.90;;;17.50;99.90;;;;;;6124901;23;20158;-50
2021/06/16 11:57:01;;;;;;;1999.90;999.90;;;17.50;99.90;;;;;;6125098;23;20198;-54
2021/06/16 11:59:38;;;;;;;1999.90;999.90;;;17.50;99.90;;;;;;6124359;23;20159;-48
2021/06/16 12:02:18;;;;;;;1999.90;999.90;;;17.50;99.90;;;;;;6124774;23;20155;-49
2021/06/16 12:04:45;;;;;;;1999.90;999.90;;;17.60;99.90;;;;;;6124369;23;20626;-50
2021/06/16 12:07:11;;;;;;;1999.90;999.90;;;17.60;99.90;;;;;;6124727;23;20163;-51
2021/06/16 12:09:45;;;;;;;1999.90;999.90;;;17.60;99.90;;;;;;6124735;23;20150;-45
2021/06/16 12:12:13;;;;;;;1999.90;999.90;;;17.50;99.90;;;;;;6124943;23;20206;-52
2021/06/16 12:14:40;;;;;;;1999.90;999.90;;;17.40;99.90;;;;;;6124375;23;20175;-47